createdAt,value
2022-12-08T00:01:32.334Z,100723.38
2022-12-08T00:04:00.998Z,100718.06
2022-12-08T00:06:48.789Z,100724.34
2022-12-08T00:09:23.472Z,100713.59
2022-12-08T00:11:59.159Z,100714.38
2022-12-08T00:14:30.341Z,100709.03
2022-12-08T00:17:00.030Z,100704.59
2022-12-08T00:19:28.807Z,100705.47
2022-12-08T00:21:59.056Z,100699.16
2022-12-08T00:24:33.305Z,100695.50
2022-12-08T00:27:01.071Z,100691.13
2022-12-08T00:29:29.335Z,100689.28
2022-12-08T00:31:57.253Z,100689.28
2022-12-08T00:34:25.237Z,100687.44
2022-12-08T00:36:53.033Z,100685.72
2022-12-08T00:39:21.089Z,100687.44
2022-12-08T00:42:19.508Z,100679.31
2022-12-08T00:44:48.034Z,100675.09
2022-12-08T00:47:19.805Z,100670.41
2022-12-08T00:49:50.093Z,100667.81
2022-12-08T00:52:17.833Z,100665.97
2022-12-08T00:54:45.599Z,100660.53
2022-12-08T00:57:14.803Z,100662.28
2022-12-08T00:59:42.629Z,100658.69
2022-12-08T01:02:10.426Z,100655.88
2022-12-08T01:04:40.628Z,100658.50
2022-12-08T01:07:08.692Z,100652.31
2022-12-08T01:09:36.588Z,100651.34
2022-12-08T01:12:05.448Z,100658.59
2022-12-08T01:14:34.736Z,100650.47
2022-12-08T01:17:02.595Z,100649.59
2022-12-08T01:19:31.020Z,100650.56
2022-12-08T01:21:58.814Z,100646.88
2022-12-08T01:24:26.729Z,100653.19
2022-12-08T01:26:54.487Z,100659.56
2022-12-08T01:29:22.285Z,100662.28
2022-12-08T01:31:51.414Z,100661.31
2022-12-08T01:34:19.218Z,100663.25
2022-12-08T01:36:48.033Z,100654.28
2022-12-08T01:39:18.163Z,100650.56
2022-12-08T01:41:48.024Z,100666.81
2022-12-08T01:44:55.106Z,100656.13
2022-12-08T01:47:31.152Z,100654.38
2022-12-08T01:49:59.527Z,100650.09
2022-12-08T01:52:33.624Z,100646.34
2022-12-08T01:55:04.880Z,100649.13
2022-12-08T01:57:38.483Z,100645.47
2022-12-08T02:00:09.767Z,100641.00
2022-12-08T02:02:46.780Z,100632.97
2022-12-08T02:05:15.152Z,100636.56
2022-12-08T02:07:44.064Z,100638.41
2022-12-08T02:10:15.129Z,100636.47
2022-12-08T02:12:43.222Z,100626.59
2022-12-08T02:15:14.859Z,100624.75
2022-12-08T02:17:55.966Z,100632.78
2022-12-08T02:20:37.664Z,100626.50
2022-12-08T02:23:11.678Z,100627.47
2022-12-08T02:25:47.849Z,100623.00
2022-12-08T02:28:38.483Z,100616.63
2022-12-08T02:31:18.662Z,100604.91
2022-12-08T02:34:19.244Z,100614.00
2022-12-08T02:37:09.226Z,100605.88
2022-12-08T02:39:43.886Z,100601.41
2022-12-08T02:42:21.732Z,100594.16
2022-12-08T02:44:56.575Z,100593.19
2022-12-08T02:47:27.490Z,100588.75
2022-12-08T02:49:56.489Z,100586.91
2022-12-08T02:52:43.225Z,100585.16
2022-12-08T02:55:20.281Z,100581.47
2022-12-08T02:58:18.134Z,100584.19
2022-12-08T03:01:03.693Z,100577.81
2022-12-08T03:03:42.608Z,100574.22
2022-12-08T03:06:21.540Z,100573.25
2022-12-08T03:08:56.391Z,100565.13
2022-12-08T03:11:31.622Z,100566.00
2022-12-08T03:14:02.840Z,100561.53
2022-12-08T03:16:33.489Z,100558.72
2022-12-08T03:19:11.714Z,100554.19
2022-12-08T03:21:40.987Z,100557.75
2022-12-08T03:24:11.765Z,100554.97
2022-12-08T03:26:46.862Z,100546.81
2022-12-08T03:29:15.243Z,100545.09
2022-12-08T03:31:59.401Z,100539.66
2022-12-08T03:34:30.905Z,100542.28
2022-12-08T03:37:02.022Z,100538.69
2022-12-08T03:39:31.254Z,100533.28
2022-12-08T03:41:58.985Z,100535.22
2022-12-08T03:44:26.932Z,100531.72
2022-12-08T03:46:54.697Z,100534.34
2022-12-08T03:49:22.515Z,100528.81
2022-12-08T03:51:50.583Z,100526.09
2022-12-08T03:54:18.526Z,100523.41
2022-12-08T03:56:47.646Z,100513.44
2022-12-08T03:59:15.506Z,100520.69
2022-12-08T04:01:43.346Z,100508.09
2022-12-08T04:04:11.517Z,100506.25
2022-12-08T04:06:39.542Z,100508.88
2022-12-08T04:09:07.363Z,100506.16
2022-12-08T04:11:35.179Z,100497.16
2022-12-08T04:14:04.477Z,100504.19
2022-12-08T04:16:32.755Z,100487.19
2022-12-08T04:19:00.633Z,100493.47
2022-12-08T04:21:28.621Z,100487.06
2022-12-08T04:24:01.018Z,100493.47
2022-12-08T04:26:31.640Z,100478.28
2022-12-08T04:28:59.414Z,100481.88
2022-12-08T04:31:28.672Z,100473.63
2022-12-08T04:33:56.589Z,100474.72
2022-12-08T04:36:24.638Z,100473.84
2022-12-08T04:38:52.440Z,100472.00
2022-12-08T04:41:20.302Z,100475.59
2022-12-08T04:43:48.044Z,100474.72
2022-12-08T04:46:15.944Z,100472.00
2022-12-08T04:48:45.221Z,100471.91
2022-12-08T04:51:17.577Z,100471.91
2022-12-08T04:53:46.958Z,100465.81
2022-12-08T04:56:15.588Z,100467.56
2022-12-08T04:58:46.228Z,100472.97
2022-12-08T05:01:14.851Z,100469.38
2022-12-08T05:03:42.976Z,100467.56
2022-12-08T05:06:14.557Z,100460.38
2022-12-08T05:08:42.593Z,100459.63
2022-12-08T05:11:12.509Z,100464.06
2022-12-08T05:13:40.710Z,100468.75
2022-12-08T05:16:11.384Z,100464.19
2022-12-08T05:18:40.316Z,100459.75
2022-12-08T05:21:08.921Z,100452.59
2022-12-08T05:23:38.517Z,100458.00
2022-12-08T05:26:06.599Z,100460.81
2022-12-08T05:28:42.998Z,100461.78
2022-12-08T05:31:12.707Z,100456.38
2022-12-08T05:33:41.544Z,100455.41
2022-12-08T05:36:10.353Z,100459.94
2022-12-08T05:38:39.878Z,100454.63
2022-12-08T05:41:08.973Z,100452.78
2022-12-08T05:43:37.413Z,100445.63
2022-12-08T05:46:05.613Z,100443.78
2022-12-08T05:48:33.738Z,100446.50
2022-12-08T05:51:02.716Z,100439.25
2022-12-08T05:53:31.867Z,100441.09
2022-12-08T05:56:01.481Z,100436.44
2022-12-08T05:58:30.587Z,100431.13
2022-12-08T06:00:58.736Z,100432.84
2022-12-08T06:03:26.938Z,100438.28
2022-12-08T06:05:54.918Z,100436.44
2022-12-08T06:08:22.876Z,100444.56
2022-12-08T06:10:50.944Z,100437.31
2022-12-08T06:13:20.127Z,100433.72
2022-12-08T06:15:48.131Z,100436.44
2022-12-08T06:18:15.918Z,100431.88
2022-12-08T06:20:45.034Z,100429.16
2022-12-08T06:23:13.355Z,100431.88
2022-12-08T06:25:41.384Z,100423.84
2022-12-08T06:28:09.322Z,100424.72
2022-12-08T06:30:38.954Z,100429.16
2022-12-08T06:33:06.839Z,100432.84
2022-12-08T06:35:34.845Z,100431.97
2022-12-08T06:38:02.812Z,100428.41
2022-12-08T06:40:30.684Z,100430.25
2022-12-08T06:42:58.658Z,100424.94
2022-12-08T06:45:26.744Z,100427.63
2022-12-08T06:47:55.940Z,100425.78
2022-12-08T06:50:23.736Z,100431.34
2022-12-08T06:53:02.779Z,100429.59
2022-12-08T06:55:57.900Z,100430.56
2022-12-08T06:58:21.703Z,100427.97
2022-12-08T07:00:49.618Z,100428.84
2022-12-08T07:03:19.053Z,100436.88
2022-12-08T07:05:47.274Z,100446.06
2022-12-08T07:08:15.371Z,100451.47
2022-12-08T07:10:43.733Z,100452.44
2022-12-08T07:13:11.644Z,100451.59
2022-12-08T07:15:39.534Z,100449.84
2022-12-08T07:18:07.472Z,100455.25
2022-12-08T07:20:36.792Z,100448.88
2022-12-08T07:23:04.709Z,100450.72
2022-12-08T07:25:32.621Z,100451.69
2022-12-08T07:28:00.818Z,100457.97
2022-12-08T07:30:28.839Z,100453.66
2022-12-08T07:32:56.921Z,100457.22
2022-12-08T07:35:24.770Z,100456.34
2022-12-08T07:37:54.315Z,100447.34
2022-12-08T07:40:22.186Z,100452.00
2022-12-08T07:42:50.061Z,100452.09
2022-12-08T07:45:18.236Z,100449.50
2022-12-08T07:47:46.096Z,100449.72
2022-12-08T07:50:13.857Z,100447.13
2022-12-08T07:52:41.632Z,100452.63
2022-12-08T07:55:11.333Z,100451.84
2022-12-08T07:57:39.176Z,100454.66
2022-12-08T08:00:08.545Z,100450.34
2022-12-08T08:02:42.770Z,100447.72
2022-12-08T08:05:12.920Z,100449.56
2022-12-08T08:07:43.746Z,100448.81
2022-12-08T08:10:16.651Z,100450.63
2022-12-08T08:12:44.557Z,100446.41
2022-12-08T08:15:13.345Z,100454.44
2022-12-08T08:17:42.242Z,100448.25
2022-12-08T08:20:11.393Z,100453.75
2022-12-08T08:22:39.168Z,100454.72
2022-12-08T08:25:07.334Z,100448.53
2022-12-08T08:27:36.844Z,100453.00
2022-12-08T08:30:05.643Z,100454.97
2022-12-08T08:32:34.721Z,100460.47
2022-12-08T08:35:05.271Z,100453.22
2022-12-08T08:37:33.519Z,100447.03
2022-12-08T08:40:01.844Z,100457.00
2022-12-08T08:42:30.196Z,100457.00
2022-12-08T08:44:59.469Z,100456.13
2022-12-08T08:47:27.398Z,100456.22
2022-12-08T08:49:55.410Z,100458.91
2022-12-08T08:52:23.327Z,100453.50
2022-12-08T08:54:51.263Z,100447.22
2022-12-08T08:57:25.108Z,100449.06
2022-12-08T08:59:53.367Z,100453.50
2022-12-08T09:02:23.027Z,100446.25
2022-12-08T09:04:50.884Z,100442.69
2022-12-08T09:07:18.877Z,100448.09
2022-12-08T09:09:47.857Z,100444.31
2022-12-08T09:12:15.856Z,100449.84
2022-12-08T09:14:44.423Z,100455.25
2022-12-08T09:17:12.402Z,100453.41
2022-12-08T09:19:41.826Z,100448.69
2022-12-08T09:22:09.760Z,100449.63
2022-12-08T09:24:38.582Z,100455.06
2022-12-08T09:27:06.398Z,100453.22
2022-12-08T09:29:36.365Z,100461.13
2022-12-08T09:32:04.649Z,100455.78
2022-12-08T09:34:33.290Z,100456.66
2022-12-08T09:37:02.402Z,100458.31
2022-12-08T09:39:30.234Z,100456.56
2022-12-08T09:42:02.173Z,100453.75
2022-12-08T09:44:45.287Z,100454.63
2022-12-08T09:47:30.727Z,100453.75
2022-12-08T09:50:08.438Z,100441.19
2022-12-08T09:52:42.332Z,100454.44
2022-12-08T09:55:20.986Z,100446.84
2022-12-08T09:57:56.659Z,100451.16
2022-12-08T10:00:25.842Z,100443.03
2022-12-08T10:02:53.795Z,100440.31
2022-12-08T10:05:23.950Z,100440.31
2022-12-08T10:08:04.943Z,100438.38
2022-12-08T10:10:40.384Z,100446.50
2022-12-08T10:13:21.821Z,100441.97
2022-12-08T10:15:59.979Z,100439.25
2022-12-08T10:18:31.115Z,100431.13
2022-12-08T10:21:06.428Z,100431.03
2022-12-08T10:23:40.486Z,100431.91
2022-12-08T10:26:14.775Z,100434.53
2022-12-08T10:28:45.400Z,100425.63
2022-12-08T10:31:22.997Z,100426.38
2022-12-08T10:33:58.063Z,100424.44
2022-12-08T10:36:45.921Z,100424.66
2022-12-08T10:39:36.434Z,100421.94
2022-12-08T10:42:10.876Z,100415.56
2022-12-08T10:44:55.161Z,100416.31
2022-12-08T10:47:26.752Z,100420.09
2022-12-08T10:50:20.116Z,100416.31
2022-12-08T10:52:54.701Z,100408.09
2022-12-08T10:55:24.348Z,100403.09
2022-12-08T10:57:52.185Z,100408.28
2022-12-08T11:00:22.892Z,100410.88
2022-12-08T11:02:54.689Z,100408.06
2022-12-08T11:05:29.404Z,100399.84
2022-12-08T11:07:57.831Z,100406.25
2022-12-08T11:10:35.475Z,100399.75
2022-12-08T11:13:05.934Z,100398.00
2022-12-08T11:15:41.073Z,100393.38
2022-12-08T11:18:26.394Z,100395.06
2022-12-08T11:21:03.705Z,100386.84
2022-12-08T11:23:32.111Z,100390.44
2022-12-08T11:26:08.649Z,100385.69
2022-12-08T11:28:39.920Z,100382.97
2022-12-08T11:31:17.507Z,100374.59
2022-12-08T11:33:48.005Z,100370.19
2022-12-08T11:36:17.326Z,100362.81
2022-12-08T11:39:02.049Z,100371.69
2022-12-08T11:41:37.032Z,100375.28
2022-12-08T11:44:16.949Z,100371.59
2022-12-08T11:46:53.558Z,100375.28
2022-12-08T11:49:21.710Z,100371.59
2022-12-08T11:51:54.717Z,100374.22
2022-12-08T11:54:27.828Z,100372.38
2022-12-08T11:56:59.088Z,100366.94
2022-12-08T11:59:32.692Z,100360.53
2022-12-08T12:02:01.963Z,100358.69
2022-12-08T12:04:34.864Z,100353.16
2022-12-08T12:07:41.431Z,100357.81
2022-12-08T12:10:45.386Z,100345.91
2022-12-08T12:13:36.192Z,100352.09
2022-12-08T12:16:39.911Z,100348.53
2022-12-08T12:19:13.569Z,100357.38
2022-12-08T12:21:45.572Z,100340.59
2022-12-08T12:24:25.901Z,100344.94
2022-12-08T12:26:59.705Z,100344.84
2022-12-08T12:29:32.230Z,100349.19
2022-12-08T12:32:04.122Z,100340.19
2022-12-08T12:34:35.985Z,100335.50
2022-12-08T12:37:08.834Z,100340.81
2022-12-08T12:39:50.796Z,100334.44
2022-12-08T12:42:38.928Z,100333.56
2022-12-08T12:45:27.645Z,100339.84
2022-12-08T12:48:26.493Z,100328.03
2022-12-08T12:50:55.481Z,100335.41
2022-12-08T12:53:49.705Z,100326.19
2022-12-08T12:56:48.239Z,100327.16
2022-12-08T12:59:37.296Z,100325.31
2022-12-08T13:02:20.053Z,100327.94
2022-12-08T13:04:58.019Z,100326.09
2022-12-08T13:07:29.290Z,100323.38
2022-12-08T13:09:59.945Z,100329.69
2022-12-08T13:12:28.243Z,100318.84
2022-12-08T13:15:03.698Z,100312.44
2022-12-08T13:17:34.785Z,100318.69
2022-12-08T13:20:06.326Z,100318.69
2022-12-08T13:23:01.821Z,100314.16
2022-12-08T13:26:14.207Z,100309.94
2022-12-08T13:29:20.489Z,100308.97
2022-12-08T13:31:52.198Z,100317.09
2022-12-08T13:34:28.607Z,100321.41
2022-12-08T13:37:03.588Z,100312.31
2022-12-08T13:39:38.520Z,100318.69
2022-12-08T13:42:16.805Z,100305.03
2022-12-08T13:45:24.083Z,100303.09
2022-12-08T13:47:59.858Z,100298.66
2022-12-08T13:54:45.462Z,100290.41
2022-12-08T13:59:24.255Z,100283.91
2022-12-08T14:01:52.779Z,100294.75
2022-12-08T14:04:42.621Z,100291.06
2022-12-08T14:07:13.008Z,100291.91
2022-12-08T14:09:41.456Z,100291.91
2022-12-08T14:12:16.730Z,100293.66
2022-12-08T14:15:03.111Z,100294.63
2022-12-08T14:17:32.359Z,100292.91
2022-12-08T14:20:02.004Z,100294.53
2022-12-08T14:22:36.196Z,100295.28
2022-12-08T14:25:06.481Z,100296.25
2022-12-08T14:27:37.094Z,100298.00
2022-12-08T14:30:08.258Z,100299.84
2022-12-08T14:32:39.895Z,100299.84
2022-12-08T14:35:21.051Z,100307.75
2022-12-08T14:37:53.838Z,100301.56
2022-12-08T14:40:25.413Z,100302.66
2022-12-08T14:43:06.160Z,100302.53
2022-12-08T14:45:35.066Z,100304.50
2022-12-08T14:48:21.662Z,100304.28
2022-12-08T14:51:01.796Z,100305.25
2022-12-08T14:53:38.068Z,100312.53
2022-12-08T14:56:10.245Z,100310.78
2022-12-08T14:58:38.222Z,100306.56
2022-12-08T15:01:10.483Z,100307.44
2022-12-08T15:03:38.795Z,100308.53
2022-12-08T15:06:09.174Z,100311.13
2022-12-08T15:08:53.314Z,100307.53
2022-12-08T15:11:35.634Z,100294.97
2022-12-08T15:14:03.902Z,100302.44
2022-12-08T15:16:38.972Z,100304.94
2022-12-08T15:19:17.071Z,100294.97
2022-12-08T15:21:47.307Z,100300.50
2022-12-08T15:24:16.788Z,100305.91
2022-12-08T15:26:46.834Z,100308.63
2022-12-08T15:29:21.356Z,100305.03
2022-12-08T15:31:49.571Z,100306.03
2022-12-08T15:34:17.512Z,100305.16
2022-12-08T15:36:45.780Z,100301.47
2022-12-08T15:39:29.445Z,100298.66
2022-12-08T15:41:57.420Z,100303.31
2022-12-08T15:44:25.223Z,100302.34
2022-12-08T15:46:54.407Z,100306.78
2022-12-08T15:49:24.382Z,100301.38
2022-12-08T15:52:00.592Z,100310.34
2022-12-08T15:54:37.308Z,100308.63
2022-12-08T15:57:35.883Z,100309.50
2022-12-08T15:59:54.253Z,100315.88
2022-12-08T16:02:23.043Z,100305.03
2022-12-08T16:07:41.658Z,100305.91
2022-12-08T16:10:18.036Z,100314.81
2022-12-08T16:15:59.885Z,100304.19
2022-12-08T16:18:31.233Z,100309.50
2022-12-08T16:23:48.020Z,100314.03
2022-12-08T16:26:49.097Z,100305.91
2022-12-08T16:29:09.465Z,100313.41
2022-12-08T16:31:37.647Z,100311.44
2022-12-08T16:34:05.637Z,100305.03
2022-12-08T16:36:33.706Z,100312.31
2022-12-08T16:39:01.694Z,100302.44
2022-12-08T16:41:48.245Z,100304.19
2022-12-08T16:44:16.445Z,100308.00
2022-12-08T16:46:44.382Z,100299.97
2022-12-08T16:49:12.330Z,100302.69
2022-12-08T16:51:42.745Z,100305.38
2022-12-08T16:54:10.721Z,100302.69
2022-12-08T16:56:40.045Z,100301.72
2022-12-08T16:59:08.238Z,100311.78
2022-12-08T17:01:36.452Z,100311.78
2022-12-08T17:04:30.351Z,100303.66
2022-12-08T17:06:53.009Z,100305.59
2022-12-08T17:09:20.971Z,100304.63
2022-12-08T17:11:50.264Z,100302.78
2022-12-08T17:14:18.223Z,100304.63
2022-12-08T17:16:46.504Z,100311.78
2022-12-08T17:19:15.878Z,100302.78
2022-12-08T17:21:46.295Z,100305.50
2022-12-08T17:24:18.600Z,100300.19
2022-12-08T17:26:51.730Z,100294.75
2022-12-08T17:29:19.682Z,100298.44
2022-12-08T17:31:47.526Z,100306.56
2022-12-08T17:34:15.492Z,100306.56
2022-12-08T17:36:43.693Z,100311.97
2022-12-08T17:39:18.383Z,100311.97
2022-12-08T17:41:47.642Z,100310.25
2022-12-08T17:44:21.512Z,100315.56
2022-12-08T17:46:52.937Z,100310.25
2022-12-08T17:49:24.529Z,100303.00
2022-12-08T17:51:55.105Z,100303.00
2022-12-08T17:54:23.428Z,100307.69
2022-12-08T17:56:51.775Z,100304.00
2022-12-08T17:59:21.159Z,100302.13
2022-12-08T18:01:49.143Z,100295.97
2022-12-08T18:04:17.119Z,100304.09
2022-12-08T18:06:45.027Z,100302.25
2022-12-08T18:09:13.234Z,100298.56
2022-12-08T18:11:41.493Z,100298.69
2022-12-08T18:14:10.509Z,100299.53
2022-12-08T18:16:41.819Z,100304.81
2022-12-08T18:19:10.808Z,100300.41
2022-12-08T18:21:39.451Z,100304.97
2022-12-08T18:24:08.405Z,100304.00
2022-12-08T18:26:36.819Z,100307.69
2022-12-08T18:29:04.806Z,100310.38
2022-12-08T18:31:32.767Z,100308.66
2022-12-08T18:34:02.009Z,100304.09
2022-12-08T18:36:29.809Z,100304.19
2022-12-08T18:38:57.889Z,100299.66
2022-12-08T18:41:26.901Z,100299.66
2022-12-08T18:43:57.313Z,100308.66
2022-12-08T18:46:25.780Z,100308.75
2022-12-08T18:48:54.038Z,100310.59
2022-12-08T18:51:25.315Z,100305.16
2022-12-08T18:53:54.063Z,100295.41
2022-12-08T18:56:24.506Z,100298.97
2022-12-08T18:58:52.460Z,100299.94
2022-12-08T19:01:20.639Z,100293.66
2022-12-08T19:06:40.369Z,100304.50
2022-12-08T19:09:09.130Z,100304.63
2022-12-08T19:11:36.990Z,100296.63
2022-12-08T19:14:08.686Z,100299.31
2022-12-08T19:16:36.952Z,100301.16
2022-12-08T19:19:05.006Z,100294.09
2022-12-08T19:21:33.366Z,100307.56
2022-12-08T19:24:03.374Z,100305.72
2022-12-08T19:26:31.376Z,100304.94
2022-12-08T19:28:59.475Z,100313.06
2022-12-08T19:31:27.765Z,100311.34
2022-12-08T19:33:55.726Z,100312.31
2022-12-08T19:36:26.031Z,100307.75
2022-12-08T19:39:15.247Z,100317.63
2022-12-08T19:42:04.189Z,100319.69
2022-12-08T19:44:49.308Z,100307.22
2022-12-08T19:47:17.472Z,100318.16
2022-12-08T19:49:46.274Z,100314.59
2022-12-08T19:52:14.231Z,100312.75
2022-12-08T19:54:42.316Z,100312.75
2022-12-08T19:57:11.806Z,100312.75
2022-12-08T19:59:39.897Z,100318.25
2022-12-08T20:02:08.802Z,100319.13
2022-12-08T20:04:36.802Z,100318.41
2022-12-08T20:07:04.803Z,100321.22
2022-12-08T20:09:32.759Z,100321.22
2022-12-08T20:12:00.687Z,100322.19
2022-12-08T20:14:29.924Z,100321.31
2022-12-08T20:16:57.896Z,100321.41
2022-12-08T20:19:25.773Z,100321.50
2022-12-08T20:21:53.621Z,100315.34
2022-12-08T20:24:21.759Z,100334.31
2022-12-08T20:26:49.851Z,100328.13
2022-12-08T20:29:18.749Z,100319.22
2022-12-08T20:31:48.106Z,100323.78
2022-12-08T20:34:16.764Z,100325.63
2022-12-08T20:36:45.216Z,100321.28
2022-12-08T20:39:15.062Z,100326.69
2022-12-08T20:41:43.273Z,100322.38
2022-12-08T20:44:11.370Z,100323.44
2022-12-08T20:46:40.477Z,100327.13
2022-12-08T20:49:12.236Z,100335.25
2022-12-08T20:51:41.550Z,100332.63
2022-12-08T20:54:09.683Z,100333.50
2022-12-08T20:56:38.339Z,100326.34
2022-12-08T20:59:08.697Z,100330.91
2022-12-08T21:01:36.661Z,100328.31
2022-12-08T21:04:05.051Z,100334.59
2022-12-08T21:06:34.479Z,100332.75
2022-12-08T21:09:02.681Z,100325.63
2022-12-08T21:11:30.887Z,100337.31
2022-12-08T21:13:59.109Z,100338.28
2022-12-08T21:16:27.035Z,100331.13
2022-12-08T21:18:55.068Z,100332.97
2022-12-08T21:21:23.262Z,100333.84
2022-12-08T21:23:52.699Z,100325.72
2022-12-08T21:26:23.245Z,100326.69
2022-12-08T21:28:51.219Z,100328.63
2022-12-08T21:31:21.672Z,100327.75
2022-12-08T21:33:50.221Z,100330.44
2022-12-08T21:36:21.457Z,100329.59
2022-12-08T21:38:50.087Z,100329.72
2022-12-08T21:41:41.717Z,100327.84
2022-12-08T21:44:12.237Z,100332.53
2022-12-08T21:46:40.667Z,100329.81
2022-12-08T21:49:08.990Z,100333.38
2022-12-08T21:51:41.461Z,100335.22
2022-12-08T21:54:13.574Z,100323.63
2022-12-08T21:56:48.344Z,100332.53
2022-12-08T21:59:16.776Z,100328.94
2022-12-08T22:01:44.820Z,100336.19
2022-12-08T22:04:13.690Z,100322.66
2022-12-08T22:06:41.842Z,100319.97
2022-12-08T22:09:13.545Z,100323.63
2022-12-08T22:11:41.740Z,100320.06
2022-12-08T22:14:14.899Z,100322.66
2022-12-08T22:16:43.701Z,100329.03
2022-12-08T22:19:12.187Z,100324.50
2022-12-08T22:21:40.324Z,100327.22
2022-12-08T22:24:09.002Z,100333.50
2022-12-08T22:26:37.123Z,100334.34
2022-12-08T22:29:04.945Z,100332.53
2022-12-08T22:31:34.363Z,100331.56
2022-12-08T22:34:02.397Z,100332.44
2022-12-08T22:36:30.494Z,100334.13
2022-12-08T22:38:58.389Z,100327.84
2022-12-08T22:41:26.382Z,100332.28
2022-12-08T22:43:54.259Z,100324.16
2022-12-08T22:46:24.465Z,100331.31
2022-12-08T22:48:55.377Z,100326.78
2022-12-08T22:51:23.279Z,100328.63
2022-12-08T22:53:51.457Z,100329.47
2022-12-08T22:56:20.110Z,100322.22
2022-12-08T22:58:47.933Z,100326.78
2022-12-08T23:01:27.255Z,100324.84
2022-12-08T23:03:56.856Z,100321.38
2022-12-08T23:06:25.479Z,100321.38
2022-12-08T23:08:54.119Z,100320.50
2022-12-08T23:11:24.426Z,100319.53
2022-12-08T23:13:52.657Z,100324.94
2022-12-08T23:16:20.859Z,100326.78
2022-12-08T23:18:48.886Z,100328.63
2022-12-08T23:21:20.413Z,100332.09
2022-12-08T23:23:48.449Z,100326.78
2022-12-08T23:26:19.011Z,100320.41
2022-12-08T23:28:47.391Z,100319.53
2022-12-08T23:31:16.069Z,100317.69
2022-12-08T23:33:44.439Z,100320.41
2022-12-08T23:36:13.901Z,100312.28
2022-12-08T23:38:43.769Z,100314.88
2022-12-08T23:41:14.244Z,100306.00
2022-12-08T23:43:45.499Z,100314.97
2022-12-08T23:46:13.887Z,100308.69
2022-12-08T23:48:42.161Z,100314.13
2022-12-08T23:51:10.559Z,100317.78
2022-12-08T23:53:39.084Z,100304.16
2022-12-08T23:56:10.597Z,100310.44
2022-12-08T23:58:39.346Z,100303.28
